Time;durP1;ratioP1;P1;durP2;ratioP2;P2;SDS_P1;SDS_P2;PMS_P1;PMS_P2;Temp;Humidity;BMP_temperature;BMP_pressure;BME280_temperature;BME280_humidity;BME280_pressure;Samples;Min_cycle;Max_cycle;Signal;HPM_P1;HPM_P2
2022/07/31 00:01:31;;;;;;;2.72;1.50;;;;;;;;;;5027990;28;20508;-76
2022/07/31 00:03:56;;;;;;;5.22;1.60;;;;;;;;;;5027809;28;20046;-76
2022/07/31 00:06:22;;;;;;;2.30;1.60;;;;;;;;;;5027785;28;20065;-76
2022/07/31 00:08:49;;;;;;;5.70;1.75;;;;;;;;;;5028001;28;20393;-76
2022/07/31 00:11:17;;;;;;;2.63;1.65;;;;;;;;;;5028114;28;20029;-77
2022/07/31 00:13:42;;;;;;;5.75;1.58;;;;;;;;;;5028092;28;20412;-77
2022/07/31 00:16:08;;;;;;;4.30;1.63;;;;;;;;;;5028117;28;20030;-76
2022/07/31 00:18:36;;;;;;;6.82;1.60;;;;;;;;;;5028129;28;20513;-76
2022/07/31 00:21:02;;;;;;;4.35;1.77;;;;;;;;;;5027616;28;20504;-76
2022/07/31 00:23:28;;;;;;;2.97;1.50;;;;;;;;;;5027699;28;20014;-78
2022/07/31 00:25:54;;;;;;;2.33;1.52;;;;;;;;;;5027764;28;20033;-75
2022/07/31 00:28:19;;;;;;;3.67;1.70;;;;;;;;;;5028034;28;20022;-75
2022/07/31 00:30:45;;;;;;;3.88;1.65;;;;;;;;;;5027680;28;20519;-77
2022/07/31 00:33:10;;;;;;;3.17;1.70;;;;;;;;;;5027563;28;20025;-75
2022/07/31 00:35:35;;;;;;;2.75;1.30;;;;;;;;;;5027558;28;20629;-75
2022/07/31 00:38:01;;;;;;;6.43;1.60;;;;;;;;;;5027469;28;20022;-75
2022/07/31 00:40:26;;;;;;;3.53;1.70;;;;;;;;;;5027467;28;20033;-75
2022/07/31 00:42:51;;;;;;;3.05;1.50;;;;;;;;;;5027351;28;20025;-75
2022/07/31 00:45:17;;;;;;;3.75;1.40;;;;;;;;;;5027422;28;20057;-76
2022/07/31 00:47:42;;;;;;;2.40;1.50;;;;;;;;;;5027461;28;20040;-76
2022/07/31 00:50:09;;;;;;;4.60;1.63;;;;;;;;;;5027472;28;20474;-75
2022/07/31 00:52:35;;;;;;;3.90;1.52;;;;;;;;;;5025715;28;20017;-75
2022/07/31 00:55:00;;;;;;;3.88;1.83;;;;;;;;;;5027078;28;20022;-74
2022/07/31 00:57:26;;;;;;;2.83;1.58;;;;;;;;;;5027307;28;20021;-75
2022/07/31 00:59:51;;;;;;;3.15;1.60;;;;;;;;;;5027251;28;20061;-75
2022/07/31 01:02:17;;;;;;;2.78;1.40;;;;;;;;;;5027251;28;20071;-75
2022/07/31 01:04:42;;;;;;;3.22;1.40;;;;;;;;;;5027085;28;20037;-75
2022/07/31 01:07:08;;;;;;;2.70;1.50;;;;;;;;;;5030542;28;20025;-75
2022/07/31 01:09:33;;;;;;;2.70;1.75;;;;;;;;;;5033778;28;20021;-76
2022/07/31 01:12:26;;;;;;;2.08;1.50;;;;;;;;;;5033768;28;20029;-75
2022/07/31 01:14:55;;;;;;;3.75;1.67;;;;;;;;;;5033811;28;20465;-75
2022/07/31 01:17:22;;;;;;;4.83;1.60;;;;;;;;;;5033848;28;20022;-76
2022/07/31 01:19:49;;;;;;;2.70;1.60;;;;;;;;;;5033691;28;20025;-77
2022/07/31 01:22:42;;;;;;;2.00;1.50;;;;;;;;;;5033149;28;20035;-75
2022/07/31 01:25:10;;;;;;;2.40;1.60;;;;;;;;;;5033506;28;20026;-76
2022/07/31 01:28:06;;;;;;;3.70;1.73;;;;;;;;;;5033495;28;20366;-76
2022/07/31 01:30:49;;;;;;;3.00;1.60;;;;;;;;;;5033566;28;20037;-77
2022/07/31 01:33:19;;;;;;;3.10;1.60;;;;;;;;;;5033406;28;20575;-76
2022/07/31 01:35:51;;;;;;;3.13;1.60;;;;;;;;;;5033457;28;20072;-75
2022/07/31 01:38:23;;;;;;;2.20;1.45;;;;;;;;;;5033453;28;20090;-76
2022/07/31 01:40:58;;;;;;;2.53;1.52;;;;;;;;;;5031893;28;20546;-76
2022/07/31 01:43:46;;;;;;;4.90;1.58;;;;;;;;;;5033001;28;20469;-76
2022/07/31 01:46:14;;;;;;;4.47;1.67;;;;;;;;;;5033381;28;20033;-75
2022/07/31 01:48:41;;;;;;;3.35;1.70;;;;;;;;;;5033436;28;20029;-75
2022/07/31 01:51:09;;;;;;;2.80;1.70;;;;;;;;;;5031973;28;20021;-77
2022/07/31 01:53:37;;;;;;;3.72;1.77;;;;;;;;;;5033048;28;20718;-76
2022/07/31 01:56:05;;;;;;;3.05;1.60;;;;;;;;;;5033535;28;20142;-77
2022/07/31 01:58:36;;;;;;;2.90;2.03;;;;;;;;;;5033080;28;20104;-75
2022/07/31 02:01:04;;;;;;;4.03;1.77;;;;;;;;;;5033136;28;20063;-76
2022/07/31 02:03:30;;;;;;;4.70;1.67;;;;;;;;;;5032835;28;20751;-75
2022/07/31 02:05:59;;;;;;;3.22;1.70;;;;;;;;;;5033286;28;20026;-76
2022/07/31 02:08:26;;;;;;;2.03;1.70;;;;;;;;;;5033107;28;20112;-74
2022/07/31 02:10:53;;;;;;;3.10;1.67;;;;;;;;;;5032958;28;20070;-75
2022/07/31 02:13:20;;;;;;;2.00;1.58;;;;;;;;;;5032792;28;20089;-75
2022/07/31 02:15:47;;;;;;;3.72;1.67;;;;;;;;;;5032910;28;20034;-74
2022/07/31 02:18:14;;;;;;;2.70;1.65;;;;;;;;;;5030752;28;20022;-75
2022/07/31 02:20:40;;;;;;;3.70;1.63;;;;;;;;;;5029614;28;20725;-77
2022/07/31 02:23:06;;;;;;;3.80;1.65;;;;;;;;;;5028175;28;20115;-75
2022/07/31 02:25:35;;;;;;;4.47;1.67;;;;;;;;;;5029660;28;20029;-75
2022/07/31 02:28:07;;;;;;;2.88;1.50;;;;;;;;;;5029678;28;20036;-75
2022/07/31 02:30:33;;;;;;;2.05;1.30;;;;;;;;;;5029597;28;20026;-76
2022/07/31 02:33:00;;;;;;;3.17;1.65;;;;;;;;;;5028943;28;20633;-74
2022/07/31 02:35:26;;;;;;;2.90;1.60;;;;;;;;;;5029415;28;20025;-75
2022/07/31 02:37:53;;;;;;;4.40;1.60;;;;;;;;;;5029369;28;20122;-75
2022/07/31 02:40:21;;;;;;;2.50;1.60;;;;;;;;;;5029479;28;20024;-75
2022/07/31 02:42:47;;;;;;;3.92;1.48;;;;;;;;;;5029191;28;20481;-77
2022/07/31 02:45:14;;;;;;;3.50;1.65;;;;;;;;;;5029402;28;20021;-76
2022/07/31 02:47:40;;;;;;;2.42;1.40;;;;;;;;;;5029073;28;20524;-77
2022/07/31 02:50:07;;;;;;;3.25;1.70;;;;;;;;;;5029038;28;20040;-76
2022/07/31 02:52:33;;;;;;;3.38;1.70;;;;;;;;;;5028767;28;20044;-76
2022/07/31 02:54:59;;;;;;;3.03;1.60;;;;;;;;;;5029170;28;20021;-78
2022/07/31 02:57:25;;;;;;;3.28;1.60;;;;;;;;;;5029018;28;20480;-77
2022/07/31 02:59:50;;;;;;;4.40;1.60;;;;;;;;;;5029185;28;20108;-76
2022/07/31 03:02:16;;;;;;;3.00;1.42;;;;;;;;;;5028837;28;20117;-77
2022/07/31 03:04:41;;;;;;;4.10;1.60;;;;;;;;;;5028783;28;20125;-75
2022/07/31 03:07:07;;;;;;;4.38;1.67;;;;;;;;;;5028703;28;20056;-77
2022/07/31 03:09:32;;;;;;;3.03;1.70;;;;;;;;;;5028770;28;20036;-77
2022/07/31 03:11:58;;;;;;;3.65;1.60;;;;;;;;;;5028823;28;20564;-75
2022/07/31 03:14:24;;;;;;;2.95;1.73;;;;;;;;;;5029034;28;20037;-76
2022/07/31 03:16:51;;;;;;;2.75;1.50;;;;;;;;;;5028929;28;20040;-76
2022/07/31 03:19:19;;;;;;;3.33;1.75;;;;;;;;;;5028952;28;20049;-76
2022/07/31 03:21:45;;;;;;;2.97;1.80;;;;;;;;;;5028490;28;20701;-76
2022/07/31 03:24:11;;;;;;;2.72;1.60;;;;;;;;;;5028498;28;20532;-76
2022/07/31 03:26:37;;;;;;;2.85;1.55;;;;;;;;;;5028741;28;20022;-76
2022/07/31 03:29:03;;;;;;;3.38;1.60;;;;;;;;;;5028357;28;20025;-76
2022/07/31 03:31:29;;;;;;;3.80;1.50;;;;;;;;;;5028573;28;20036;-75
2022/07/31 03:33:54;;;;;;;3.60;1.90;;;;;;;;;;5028495;28;20030;-76
2022/07/31 03:36:20;;;;;;;2.65;1.70;;;;;;;;;;5028581;28;20022;-77
2022/07/31 03:38:45;;;;;;;4.60;1.88;;;;;;;;;;5027379;28;20419;-75
2022/07/31 03:41:11;;;;;;;3.50;1.70;;;;;;;;;;5028578;28;20025;-76
2022/07/31 03:43:38;;;;;;;3.00;1.63;;;;;;;;;;5028158;28;20053;-76
2022/07/31 03:46:05;;;;;;;3.55;1.83;;;;;;;;;;5028326;28;20035;-77
2022/07/31 03:48:30;;;;;;;2.50;1.70;;;;;;;;;;5028270;28;20509;-76
2022/07/31 03:50:56;;;;;;;3.75;1.75;;;;;;;;;;5028355;28;20036;-77
2022/07/31 03:53:23;;;;;;;4.20;2.08;;;;;;;;;;5028038;28;20026;-76
2022/07/31 03:55:50;;;;;;;3.90;1.95;;;;;;;;;;5028237;28;20025;-75
2022/07/31 03:58:17;;;;;;;3.22;1.95;;;;;;;;;;5028065;28;20032;-75
2022/07/31 04:00:43;;;;;;;2.90;1.80;;;;;;;;;;5027876;28;20033;-76
2022/07/31 04:03:10;;;;;;;6.07;2.15;;;;;;;;;;5027721;28;20042;-75
2022/07/31 04:05:40;;;;;;;2.58;1.58;;;;;;;;;;5028119;28;20030;-75
2022/07/31 04:08:07;;;;;;;3.45;1.75;;;;;;;;;;5028047;28;20024;-75
2022/07/31 04:10:34;;;;;;;3.70;1.90;;;;;;;;;;5026705;28;20049;-76
2022/07/31 04:13:00;;;;;;;3.97;2.15;;;;;;;;;;5027731;28;20636;-77
2022/07/31 04:15:26;;;;;;;3.75;1.80;;;;;;;;;;5027843;28;20017;-75
2022/07/31 04:17:51;;;;;;;4.22;2.05;;;;;;;;;;5027750;28;20433;-75
2022/07/31 04:20:18;;;;;;;4.43;2.00;;;;;;;;;;5027843;28;20049;-75
2022/07/31 04:22:44;;;;;;;4.82;2.00;;;;;;;;;;5027408;28;20029;-75
2022/07/31 04:25:09;;;;;;;2.85;1.90;;;;;;;;;;5027819;28;20497;-76
2022/07/31 04:27:35;;;;;;;3.47;1.90;;;;;;;;;;5027705;28;20091;-75
2022/07/31 04:30:01;;;;;;;5.68;2.33;;;;;;;;;;5028017;28;20109;-75
2022/07/31 04:32:26;;;;;;;3.08;1.90;;;;;;;;;;5027395;28;20496;-76
2022/07/31 04:34:52;;;;;;;3.67;1.90;;;;;;;;;;5027445;28;20025;-77
2022/07/31 04:37:18;;;;;;;3.42;2.00;;;;;;;;;;5027261;28;20584;-76
2022/07/31 04:39:43;;;;;;;2.95;2.10;;;;;;;;;;5027665;28;20557;-76
2022/07/31 04:42:09;;;;;;;5.07;2.20;;;;;;;;;;5027099;28;20482;-78
2022/07/31 04:44:34;;;;;;;3.58;2.00;;;;;;;;;;5027356;28;20026;-77
2022/07/31 04:47:01;;;;;;;3.60;2.10;;;;;;;;;;5027543;28;20519;-76
2022/07/31 04:49:27;;;;;;;4.53;2.00;;;;;;;;;;5027605;28;20508;-77
2022/07/31 04:51:52;;;;;;;3.85;1.90;;;;;;;;;;5027408;28;20038;-77
2022/07/31 04:54:18;;;;;;;4.70;1.90;;;;;;;;;;5027458;28;20510;-77
2022/07/31 04:56:44;;;;;;;3.42;1.85;;;;;;;;;;5027388;28;20034;-77
2022/07/31 04:59:12;;;;;;;2.60;1.90;;;;;;;;;;5027521;28;20485;-78
2022/07/31 05:01:39;;;;;;;3.78;1.95;;;;;;;;;;5026078;28;20029;-78
2022/07/31 05:04:05;;;;;;;4.63;2.03;;;;;;;;;;5025760;28;20436;-76
2022/07/31 05:06:39;;;;;;;3.45;1.90;;;;;;;;;;5027146;28;20100;-78
2022/07/31 05:09:07;;;;;;;2.92;1.95;;;;;;;;;;5027217;28;20025;-77
2022/07/31 05:11:33;;;;;;;2.60;1.77;;;;;;;;;;5027345;28;20052;-77
2022/07/31 05:14:00;;;;;;;3.95;1.90;;;;;;;;;;5026953;28;20029;-76
2022/07/31 05:16:27;;;;;;;6.85;2.08;;;;;;;;;;5027052;28;20105;-75
2022/07/31 05:18:53;;;;;;;3.75;2.00;;;;;;;;;;5027364;28;20074;-75
2022/07/31 05:21:19;;;;;;;3.22;1.75;;;;;;;;;;5027033;28;20029;-74
2022/07/31 05:23:46;;;;;;;2.70;1.60;;;;;;;;;;5026642;28;20033;-74
2022/07/31 05:26:12;;;;;;;4.57;1.83;;;;;;;;;;5025676;28;20017;-74
2022/07/31 05:28:39;;;;;;;3.45;1.70;;;;;;;;;;5026873;28;20381;-75
2022/07/31 05:31:06;;;;;;;4.13;1.90;;;;;;;;;;5026843;28;20029;-74
2022/07/31 05:33:32;;;;;;;5.68;2.00;;;;;;;;;;5026406;28;20533;-74
2022/07/31 05:35:58;;;;;;;4.35;1.73;;;;;;;;;;5026860;28;20021;-75
2022/07/31 05:38:25;;;;;;;3.30;1.80;;;;;;;;;;5027002;28;20029;-75
2022/07/31 05:40:51;;;;;;;3.78;2.10;;;;;;;;;;5026696;28;20033;-75
2022/07/31 05:43:16;;;;;;;4.28;2.00;;;;;;;;;;5026673;28;20025;-74
2022/07/31 05:45:42;;;;;;;2.63;1.80;;;;;;;;;;5026670;28;20116;-77
2022/07/31 05:48:07;;;;;;;2.88;1.70;;;;;;;;;;5026600;28;20159;-76
2022/07/31 05:50:33;;;;;;;3.42;1.80;;;;;;;;;;5026850;28;20105;-76
2022/07/31 05:52:59;;;;;;;3.60;1.75;;;;;;;;;;5026395;28;20388;-75
2022/07/31 05:55:24;;;;;;;3.88;1.90;;;;;;;;;;5030183;28;20388;-76
2022/07/31 05:57:50;;;;;;;4.18;1.83;;;;;;;;;;5029979;28;20025;-75
2022/07/31 06:00:16;;;;;;;3.63;1.80;;;;;;;;;;5029993;28;20094;-75
2022/07/31 06:02:41;;;;;;;3.65;1.80;;;;;;;;;;5029824;28;20378;-77
2022/07/31 06:05:07;;;;;;;3.50;1.70;;;;;;;;;;5029573;28;20032;-75
2022/07/31 06:07:33;;;;;;;2.42;1.65;;;;;;;;;;5029649;28;20034;-76
2022/07/31 06:09:58;;;;;;;3.97;1.77;;;;;;;;;;5030112;28;20025;-76
2022/07/31 06:12:24;;;;;;;3.63;1.83;;;;;;;;;;5029761;28;20085;-75
2022/07/31 06:14:49;;;;;;;3.42;1.92;;;;;;;;;;5029696;28;20083;-75
2022/07/31 06:17:15;;;;;;;2.80;1.60;;;;;;;;;;5028526;28;20049;-75
2022/07/31 06:19:40;;;;;;;4.78;1.83;;;;;;;;;;5029660;28;20527;-76
2022/07/31 06:22:05;;;;;;;5.10;1.77;;;;;;;;;;5029470;28;20538;-76
2022/07/31 06:24:31;;;;;;;2.70;1.70;;;;;;;;;;5029297;28;20057;-75
2022/07/31 06:27:00;;;;;;;3.47;1.85;;;;;;;;;;5029814;28;20036;-75
2022/07/31 06:29:27;;;;;;;3.22;1.67;;;;;;;;;;5029663;28;20529;-75
2022/07/31 06:31:55;;;;;;;4.28;2.10;;;;;;;;;;5029539;28;20070;-79
2022/07/31 06:34:21;;;;;;;3.58;1.70;;;;;;;;;;5029162;28;20022;-78
2022/07/31 06:36:47;;;;;;;3.30;1.70;;;;;;;;;;5029213;28;20508;-78
2022/07/31 06:39:13;;;;;;;3.03;1.70;;;;;;;;;;5029325;28;20029;-79
2022/07/31 06:41:45;;;;;;;5.40;1.88;;;;;;;;;;5029621;28;20460;-79
2022/07/31 06:44:12;;;;;;;3.65;1.63;;;;;;;;;;5029300;28;20043;-79
2022/07/31 06:46:38;;;;;;;2.78;1.80;;;;;;;;;;5029345;28;20055;-78
2022/07/31 06:49:04;;;;;;;5.15;1.70;;;;;;;;;;5028015;28;20231;-78
2022/07/31 06:51:29;;;;;;;5.30;2.08;;;;;;;;;;5029715;28;20037;-79
2022/07/31 06:53:55;;;;;;;3.45;1.35;;;;;;;;;;5029129;28;20118;-78
2022/07/31 06:56:21;;;;;;;3.45;1.40;;;;;;;;;;5029075;28;20025;-77
2022/07/31 06:58:46;;;;;;;4.32;1.45;;;;;;;;;;5029151;28;20026;-78
2022/07/31 07:01:12;;;;;;;4.88;1.63;;;;;;;;;;5029064;28;20548;-77
2022/07/31 07:03:38;;;;;;;4.10;1.50;;;;;;;;;;5028790;28;20419;-78
2022/07/31 07:06:05;;;;;;;4.07;1.60;;;;;;;;;;5028529;28;20049;-77
2022/07/31 07:08:30;;;;;;;2.83;1.35;;;;;;;;;;5029045;28;20042;-78
2022/07/31 07:10:56;;;;;;;3.65;1.40;;;;;;;;;;5028775;28;20057;-76
2022/07/31 07:13:21;;;;;;;3.33;1.50;;;;;;;;;;5028657;28;20052;-78
2022/07/31 07:15:47;;;;;;;3.25;1.40;;;;;;;;;;5029177;28;20589;-78
2022/07/31 07:18:13;;;;;;;4.20;1.58;;;;;;;;;;5029036;28;20028;-78
2022/07/31 07:20:38;;;;;;;5.35;1.40;;;;;;;;;;5028932;28;20602;-78
2022/07/31 07:23:04;;;;;;;6.78;1.40;;;;;;;;;;5028530;28;20036;-78
2022/07/31 07:25:30;;;;;;;3.95;1.70;;;;;;;;;;5028745;28;20358;-78
2022/07/31 07:27:55;;;;;;;6.80;1.50;;;;;;;;;;5028608;28;20049;-78
2022/07/31 07:30:21;;;;;;;5.60;1.60;;;;;;;;;;5028523;28;20049;-78
2022/07/31 07:32:47;;;;;;;3.28;1.45;;;;;;;;;;5028387;28;20021;-78
2022/07/31 07:35:12;;;;;;;4.50;1.50;;;;;;;;;;5028204;28;20026;-78
2022/07/31 07:37:39;;;;;;;7.35;1.60;;;;;;;;;;5028440;28;20021;-78
2022/07/31 07:40:08;;;;;;;4.80;1.60;;;;;;;;;;5028550;28;20030;-78
2022/07/31 07:42:34;;;;;;;2.97;1.50;;;;;;;;;;5028479;28;20037;-78
2022/07/31 07:44:59;;;;;;;3.28;1.40;;;;;;;;;;5028196;28;20093;-78
2022/07/31 07:47:25;;;;;;;3.22;1.42;;;;;;;;;;5028113;28;20029;-78
2022/07/31 07:49:50;;;;;;;4.18;1.33;;;;;;;;;;5028261;28;20025;-78
2022/07/31 07:52:16;;;;;;;5.40;1.50;;;;;;;;;;5028088;28;20018;-77
2022/07/31 07:54:42;;;;;;;5.28;1.40;;;;;;;;;;5028200;28;20025;-78
2022/07/31 07:57:08;;;;;;;4.43;1.70;;;;;;;;;;5028676;28;20257;-78
2022/07/31 07:59:34;;;;;;;5.65;1.50;;;;;;;;;;5028197;28;20021;-77
2022/07/31 08:02:00;;;;;;;4.63;1.58;;;;;;;;;;5028043;28;20099;-76
2022/07/31 08:04:25;;;;;;;3.05;1.35;;;;;;;;;;5027715;28;20045;-77
2022/07/31 08:06:51;;;;;;;3.95;1.50;;;;;;;;;;5027916;28;20030;-76
2022/07/31 08:09:16;;;;;;;3.90;1.40;;;;;;;;;;5027987;28;20044;-76
2022/07/31 08:11:42;;;;;;;4.38;1.45;;;;;;;;;;5028180;28;20066;-78
2022/07/31 08:14:07;;;;;;;5.97;1.50;;;;;;;;;;5028045;28;20029;-76
2022/07/31 08:16:33;;;;;;;3.72;1.50;;;;;;;;;;5026961;28;20033;-77
2022/07/31 08:18:58;;;;;;;4.03;1.60;;;;;;;;;;5027745;28;20034;-78
2022/07/31 08:21:23;;;;;;;3.88;1.40;;;;;;;;;;5027709;28;20021;-78
2022/07/31 08:23:49;;;;;;;4.05;1.70;;;;;;;;;;5027472;28;20397;-77
2022/07/31 08:26:16;;;;;;;2.17;1.27;;;;;;;;;;5028012;28;20064;-77
2022/07/31 08:28:42;;;;;;;2.58;1.40;;;;;;;;;;5027856;28;20022;-78
2022/07/31 08:31:07;;;;;;;2.83;1.30;;;;;;;;;;5027781;28;20071;-77
2022/07/31 08:33:33;;;;;;;5.80;1.50;;;;;;;;;;5027690;28;20450;-76
2022/07/31 08:35:59;;;;;;;4.60;1.40;;;;;;;;;;5027326;28;20025;-76
2022/07/31 08:38:25;;;;;;;1.77;1.30;;;;;;;;;;5027725;28;20034;-77
2022/07/31 08:40:50;;;;;;;3.10;1.40;;;;;;;;;;5027446;28;20392;-76
2022/07/31 08:43:15;;;;;;;5.53;1.48;;;;;;;;;;5027472;28;20064;-77
2022/07/31 08:45:41;;;;;;;3.92;1.50;;;;;;;;;;5027356;28;20049;-77
2022/07/31 08:48:08;;;;;;;5.10;1.50;;;;;;;;;;5027480;28;20063;-77
2022/07/31 08:50:37;;;;;;;4.70;1.45;;;;;;;;;;5026193;28;20030;-77
2022/07/31 08:53:03;;;;;;;2.22;1.27;;;;;;;;;;5027272;28;20121;-77
2022/07/31 08:55:31;;;;;;;2.60;1.30;;;;;;;;;;5027115;28;20548;-78
2022/07/31 08:57:57;;;;;;;3.75;1.40;;;;;;;;;;5027266;28;20033;-77
2022/07/31 09:00:23;;;;;;;4.75;1.50;;;;;;;;;;5027299;28;20033;-77
2022/07/31 09:02:49;;;;;;;4.18;1.52;;;;;;;;;;5027305;28;20061;-77
2022/07/31 09:05:15;;;;;;;3.13;1.40;;;;;;;;;;5027235;28;20405;-77
2022/07/31 09:07:41;;;;;;;4.63;1.42;;;;;;;;;;5027292;28;20389;-77
2022/07/31 09:10:27;;;;;;;6.38;1.23;;;;;;;;;;5027317;28;20025;-77
2022/07/31 09:12:54;;;;;;;4.20;1.48;;;;;;;;;;5007183;28;20026;-78
2022/07/31 09:15:22;;;;;;;4.90;1.27;;;;;;;;;;5007202;28;20109;-78
2022/07/31 09:17:48;;;;;;;4.40;1.48;;;;;;;;;;5007509;28;20493;-77
2022/07/31 09:20:25;;;;;;;6.60;1.60;;;;;;;;;;5007451;28;20026;-78
2022/07/31 09:23:08;;;;;;;5.22;1.50;;;;;;;;;;5007334;28;20049;-78
2022/07/31 09:25:34;;;;;;;4.00;1.30;;;;;;;;;;5005878;28;20045;-77
2022/07/31 09:28:04;;;;;;;5.22;1.55;;;;;;;;;;5008701;28;20099;-78
2022/07/31 09:30:31;;;;;;;3.15;1.45;;;;;;;;;;5010934;28;20034;-78
2022/07/31 09:33:18;;;;;;;4.45;1.40;;;;;;;;;;5010642;28;20033;-77
2022/07/31 09:36:02;;;;;;;5.80;1.50;;;;;;;;;;5009122;28;20038;-77
2022/07/31 09:38:36;;;;;;;4.82;1.40;;;;;;;;;;5010689;28;20014;-78
2022/07/31 09:41:12;;;;;;;3.17;1.30;;;;;;;;;;5010750;28;20025;-77
2022/07/31 09:43:38;;;;;;;4.10;1.50;;;;;;;;;;5010647;28;20018;-77
2022/07/31 09:46:05;;;;;;;3.97;1.35;;;;;;;;;;5010303;28;20512;-78
2022/07/31 09:48:31;;;;;;;2.70;1.40;;;;;;;;;;5010391;28;20389;-77
2022/07/31 09:51:05;;;;;;;3.08;1.33;;;;;;;;;;5010188;28;20040;-77
2022/07/31 09:53:45;;;;;;;2.33;1.30;;;;;;;;;;5010269;28;20037;-77
2022/07/31 09:56:11;;;;;;;4.05;1.40;;;;;;;;;;5009119;28;20078;-78
2022/07/31 09:58:41;;;;;;;2.00;1.15;;;;;;;;;;5010370;28;20096;-77
2022/07/31 10:01:11;;;;;;;4.40;1.33;;;;;;;;;;5010534;28;20065;-78
2022/07/31 10:03:37;;;;;;;;;;;;;;;;;;5010612;28;20042;-77
2022/07/31 10:06:05;;;;;;;4.00;1.20;;;;;;;;;;5009859;28;19966;-78
2022/07/31 10:08:34;;;;;;;1.80;1.10;;;;;;;;;;5010022;28;20030;-78
2022/07/31 10:11:01;;;;;;;2.70;1.20;;;;;;;;;;5009925;28;20082;-78
2022/07/31 10:13:28;;;;;;;4.10;1.58;;;;;;;;;;5009978;28;20537;-78
2022/07/31 10:15:58;;;;;;;6.22;1.38;;;;;;;;;;5010296;28;20034;-78
2022/07/31 10:18:26;;;;;;;2.65;1.20;;;;;;;;;;5010019;28;20030;-78
2022/07/31 10:20:54;;;;;;;3.97;1.50;;;;;;;;;;5009893;28;20033;-78
2022/07/31 10:23:22;;;;;;;6.10;1.15;;;;;;;;;;5009754;28;20037;-78
2022/07/31 10:25:51;;;;;;;2.78;1.20;;;;;;;;;;5009479;28;20036;-78
2022/07/31 10:28:17;;;;;;;3.45;1.30;;;;;;;;;;5009851;28;20576;-78
2022/07/31 10:30:45;;;;;;;3.47;1.40;;;;;;;;;;5008622;28;20116;-78
2022/07/31 10:33:10;;;;;;;2.60;1.10;;;;;;;;;;5009941;28;20101;-78
2022/07/31 10:35:45;;;;;;;2.92;1.20;;;;;;;;;;5009630;28;20156;-78
2022/07/31 10:38:22;;;;;;;3.42;1.10;;;;;;;;;;5009783;28;20033;-77
2022/07/31 10:40:53;;;;;;;2.83;1.20;;;;;;;;;;5007435;28;20480;-77
2022/07/31 10:43:29;;;;;;;4.75;1.30;;;;;;;;;;5009503;28;20030;-77
2022/07/31 10:45:55;;;;;;;3.17;1.40;;;;;;;;;;5009499;28;20034;-77
2022/07/31 10:48:21;;;;;;;2.92;1.20;;;;;;;;;;5009931;28;20033;-78
2022/07/31 10:50:59;;;;;;;3.55;1.23;;;;;;;;;;5009601;28;20040;-76
2022/07/31 10:53:24;;;;;;;3.25;1.20;;;;;;;;;;5009581;28;20663;-78
2022/07/31 10:56:01;;;;;;;2.92;1.40;;;;;;;;;;5009258;28;20092;-77
2022/07/31 10:58:28;;;;;;;1.48;1.10;;;;;;;;;;5009330;28;20018;-78
2022/07/31 11:01:08;;;;;;;2.28;1.20;;;;;;;;;;5007849;28;20049;-78
2022/07/31 11:03:45;;;;;;;2.53;1.38;;;;;;;;;;5009167;28;20085;-78
2022/07/31 11:06:11;;;;;;;3.13;1.27;;;;;;;;;;5009082;28;20025;-77
2022/07/31 11:08:47;;;;;;;4.97;1.27;;;;;;;;;;5009637;28;20479;-77
2022/07/31 11:11:13;;;;;;;5.13;1.42;;;;;;;;;;5009306;28;20034;-78
2022/07/31 11:13:45;;;;;;;3.88;1.20;;;;;;;;;;5009064;28;20040;-78
2022/07/31 11:16:10;;;;;;;3.45;1.45;;;;;;;;;;5007568;28;20096;-77
2022/07/31 11:18:36;;;;;;;2.00;1.10;;;;;;;;;;5009048;28;20061;-77
2022/07/31 11:21:06;;;;;;;5.45;1.20;;;;;;;;;;5008949;28;20030;-77
2022/07/31 11:23:33;;;;;;;2.15;1.20;;;;;;;;;;5009019;28;20026;-77
2022/07/31 11:26:00;;;;;;;3.22;1.20;;;;;;;;;;5008828;28;20048;-77
2022/07/31 11:28:26;;;;;;;2.90;1.10;;;;;;;;;;5009103;28;20109;-77
2022/07/31 11:31:01;;;;;;;3.58;1.10;;;;;;;;;;5009005;28;20529;-77
2022/07/31 11:33:31;;;;;;;2.15;1.10;;;;;;;;;;5008810;28;20040;-77
2022/07/31 11:36:05;;;;;;;2.25;1.15;;;;;;;;;;5008412;28;20086;-78
2022/07/31 11:38:30;;;;;;;2.40;1.08;;;;;;;;;;5008812;28;20520;-77
2022/07/31 11:40:55;;;;;;;1.90;1.00;;;;;;;;;;5008811;28;20053;-76
2022/07/31 11:43:22;;;;;;;1.77;1.10;;;;;;;;;;5008839;28;20053;-76
2022/07/31 11:45:50;;;;;;;2.15;1.05;;;;;;;;;;5008485;28;20028;-76
2022/07/31 11:48:17;;;;;;;3.50;1.20;;;;;;;;;;5008711;28;20427;-76
2022/07/31 11:50:43;;;;;;;4.53;1.20;;;;;;;;;;5008481;28;20392;-76
2022/07/31 11:53:09;;;;;;;3.28;1.15;;;;;;;;;;5008240;28;20022;-78
2022/07/31 11:55:50;;;;;;;2.70;1.10;;;;;;;;;;5008200;28;20053;-76
2022/07/31 11:58:18;;;;;;;2.78;1.20;;;;;;;;;;5008472;28;20026;-77
2022/07/31 12:00:47;;;;;;;2.78;1.10;;;;;;;;;;5008359;28;20560;-78
2022/07/31 12:03:14;;;;;;;3.13;1.00;;;;;;;;;;5008323;28;20100;-77
2022/07/31 12:05:44;;;;;;;2.05;1.05;;;;;;;;;;5008215;28;20049;-77
2022/07/31 12:08:10;;;;;;;;;;;;;;;;;;5008647;28;20432;-78
2022/07/31 12:10:35;;;;;;;2.60;1.00;;;;;;;;;;5008257;28;20405;-77
2022/07/31 12:13:01;;;;;;;1.98;1.13;;;;;;;;;;5006953;28;20389;-76
2022/07/31 12:15:27;;;;;;;2.20;1.02;;;;;;;;;;5008147;28;20022;-76
2022/07/31 12:18:01;;;;;;;3.25;1.10;;;;;;;;;;5007015;28;20030;-75
2022/07/31 12:20:26;;;;;;;3.25;1.17;;;;;;;;;;5008258;28;20022;-76
2022/07/31 12:22:58;;;;;;;2.97;1.23;;;;;;;;;;5006707;28;20033;-76
2022/07/31 12:25:25;;;;;;;3.33;1.10;;;;;;;;;;5007825;28;20109;-76
2022/07/31 12:27:54;;;;;;;3.03;1.10;;;;;;;;;;5008042;28;20067;-76
2022/07/31 12:30:24;;;;;;;2.60;1.27;;;;;;;;;;5008143;28;20037;-76
2022/07/31 12:32:50;;;;;;;;;;;;;;;;;;5008394;28;20018;-76
2022/07/31 12:35:16;;;;;;;2.42;1.00;;;;;;;;;;5008010;28;19939;-77
2022/07/31 12:37:43;;;;;;;2.08;0.82;;;;;;;;;;5007766;28;20026;-75
2022/07/31 12:40:19;;;;;;;2.92;0.90;;;;;;;;;;5007956;28;20026;-76
2022/07/31 12:42:45;;;;;;;1.98;1.08;;;;;;;;;;5007886;28;20045;-77
2022/07/31 12:45:10;;;;;;;1.60;0.90;;;;;;;;;;5007749;28;20026;-76
2022/07/31 12:47:36;;;;;;;2.38;1.05;;;;;;;;;;5007328;28;20075;-76
2022/07/31 12:50:02;;;;;;;1.90;0.98;;;;;;;;;;5007767;28;20022;-76
2022/07/31 12:52:33;;;;;;;3.58;1.20;;;;;;;;;;5007418;28;20022;-76
2022/07/31 12:55:00;;;;;;;2.70;1.10;;;;;;;;;;5007799;28;20022;-75
2022/07/31 12:57:27;;;;;;;1.58;0.95;;;;;;;;;;5007659;28;20033;-76
2022/07/31 12:59:53;;;;;;;0.90;0.75;;;;;;;;;;5007568;28;20484;-77
2022/07/31 13:02:18;;;;;;;1.55;0.90;;;;;;;;;;5007116;28;20102;-76
2022/07/31 13:04:44;;;;;;;2.83;0.80;;;;;;;;;;5007312;28;20183;-77
2022/07/31 13:07:09;;;;;;;1.60;0.80;;;;;;;;;;5007260;28;20053;-76
2022/07/31 13:09:35;;;;;;;2.08;1.00;;;;;;;;;;5007510;28;20546;-77
2022/07/31 13:12:00;;;;;;;1.65;1.05;;;;;;;;;;5007454;28;20026;-76
2022/07/31 13:14:26;;;;;;;2.47;1.10;;;;;;;;;;5007377;28;20526;-75
2022/07/31 13:16:53;;;;;;;0.93;0.80;;;;;;;;;;5005942;28;20034;-74
2022/07/31 13:19:19;;;;;;;3.83;1.08;;;;;;;;;;5007250;28;20030;-74
2022/07/31 13:21:45;;;;;;;1.85;0.98;;;;;;;;;;5007101;28;20040;-74
2022/07/31 13:24:12;;;;;;;2.80;1.00;;;;;;;;;;5007323;28;20057;-74
2022/07/31 13:26:38;;;;;;;2.70;1.00;;;;;;;;;;5007129;28;20129;-74
2022/07/31 13:29:04;;;;;;;1.92;0.80;;;;;;;;;;5007276;28;20473;-75
2022/07/31 13:31:30;;;;;;;2.05;1.00;;;;;;;;;;5007233;28;20069;-74
2022/07/31 13:33:56;;;;;;;2.75;0.98;;;;;;;;;;5007128;28;20030;-74
2022/07/31 13:36:21;;;;;;;1.52;1.00;;;;;;;;;;5006665;28;20097;-75
2022/07/31 13:38:47;;;;;;;3.13;0.90;;;;;;;;;;5007115;28;20026;-75
2022/07/31 13:41:26;;;;;;;1.63;1.00;;;;;;;;;;5005725;28;20027;-74
2022/07/31 13:43:53;;;;;;;2.10;0.83;;;;;;;;;;5007254;28;20122;-74
2022/07/31 13:46:20;;;;;;;1.45;1.00;;;;;;;;;;5007030;28;20022;-75
2022/07/31 13:48:45;;;;;;;1.90;1.00;;;;;;;;;;5006966;28;20105;-74
2022/07/31 13:51:11;;;;;;;2.15;1.10;;;;;;;;;;5006998;28;20110;-74
2022/07/31 13:53:36;;;;;;;2.15;1.10;;;;;;;;;;5006632;28;20516;-74
2022/07/31 13:56:02;;;;;;;3.15;0.95;;;;;;;;;;5006641;28;20026;-74
2022/07/31 13:58:27;;;;;;;7.18;0.90;;;;;;;;;;5006823;28;20470;-74
2022/07/31 14:00:54;;;;;;;1.75;0.90;;;;;;;;;;5006879;28;20602;-74
2022/07/31 14:03:19;;;;;;;3.20;0.90;;;;;;;;;;5005422;28;20046;-75
2022/07/31 14:05:45;;;;;;;2.42;1.00;;;;;;;;;;5006764;28;20531;-75
2022/07/31 14:08:10;;;;;;;3.15;0.90;;;;;;;;;;5005395;28;20113;-73
2022/07/31 14:10:36;;;;;;;2.40;0.82;;;;;;;;;;5006587;28;20610;-74
2022/07/31 14:13:01;;;;;;;2.00;0.88;;;;;;;;;;5006428;28;20057;-74
2022/07/31 14:15:27;;;;;;;1.58;0.98;;;;;;;;;;5008603;28;20028;-75
2022/07/31 14:17:52;;;;;;;1.20;0.82;;;;;;;;;;5009915;28;20040;-75
2022/07/31 14:20:18;;;;;;;0.88;0.65;;;;;;;;;;5010000;28;20494;-74
2022/07/31 14:22:43;;;;;;;2.58;0.90;;;;;;;;;;5009891;28;20041;-77
2022/07/31 14:25:10;;;;;;;1.15;0.70;;;;;;;;;;5008519;28;20026;-77
2022/07/31 14:27:37;;;;;;;1.35;0.75;;;;;;;;;;5009722;28;20040;-77
2022/07/31 14:30:05;;;;;;;1.15;0.70;;;;;;;;;;5009688;28;20032;-78
2022/07/31 14:32:30;;;;;;;2.33;0.98;;;;;;;;;;5009681;28;20482;-77
2022/07/31 14:34:56;;;;;;;1.20;1.00;;;;;;;;;;5009707;28;20060;-79
2022/07/31 14:37:21;;;;;;;1.30;0.80;;;;;;;;;;5009413;28;20083;-78
2022/07/31 14:39:47;;;;;;;1.90;0.90;;;;;;;;;;5009630;28;20030;-76
2022/07/31 14:42:13;;;;;;;3.47;1.08;;;;;;;;;;5009798;28;20049;-77
2022/07/31 14:44:40;;;;;;;2.88;1.42;;;;;;;;;;5009616;28;20034;-77